sensor_id;sensor_type;location;lat;lon;timestamp;P1;durP1;ratioP1;P2;durP2;ratioP2
14306;SDS011;7237;49.500;11.400;2024-03-22T00:02:08;239.70;;;25.93;;
14306;SDS011;7237;49.500;11.400;2024-03-22T00:04:36;176.70;;;24.87;;
14306;SDS011;7237;49.500;11.400;2024-03-22T00:07:03;76.70;;;18.80;;
14306;SDS011;7237;49.500;11.400;2024-03-22T00:09:30;85.43;;;21.87;;
14306;SDS011;7237;49.500;11.400;2024-03-22T00:11:56;85.00;;;21.10;;
14306;SDS011;7237;49.500;11.400;2024-03-22T00:14:23;84.20;;;21.57;;
14306;SDS011;7237;49.500;11.400;2024-03-22T00:16:49;142.07;;;24.53;;
14306;SDS011;7237;49.500;11.400;2024-03-22T00:19:16;83.13;;;20.53;;
14306;SDS011;7237;49.500;11.400;2024-03-22T00:21:43;70.07;;;21.07;;
14306;SDS011;7237;49.500;11.400;2024-03-22T00:24:11;42.63;;;20.10;;
14306;SDS011;7237;49.500;11.400;2024-03-22T00:26:37;66.57;;;21.17;;
14306;SDS011;7237;49.500;11.400;2024-03-22T00:29:04;139.20;;;24.20;;
14306;SDS011;7237;49.500;11.400;2024-03-22T00:31:30;96.00;;;23.13;;
14306;SDS011;7237;49.500;11.400;2024-03-22T00:33:57;68.77;;;21.50;;
14306;SDS011;7237;49.500;11.400;2024-03-22T00:36:23;67.07;;;22.00;;
14306;SDS011;7237;49.500;11.400;2024-03-22T00:38:50;314.10;;;29.07;;
14306;SDS011;7237;49.500;11.400;2024-03-22T00:41:18;156.87;;;22.50;;
14306;SDS011;7237;49.500;11.400;2024-03-22T00:43:45;159.97;;;22.90;;
14306;SDS011;7237;49.500;11.400;2024-03-22T00:46:11;316.70;;;26.67;;
14306;SDS011;7237;49.500;11.400;2024-03-22T00:48:38;153.90;;;20.47;;
14306;SDS011;7237;49.500;11.400;2024-03-22T00:51:04;188.63;;;20.90;;
14306;SDS011;7237;49.500;11.400;2024-03-22T00:53:32;90.87;;;18.33;;
14306;SDS011;7237;49.500;11.400;2024-03-22T00:55:58;134.00;;;19.57;;
14306;SDS011;7237;49.500;11.400;2024-03-22T00:58:27;163.80;;;21.13;;
14306;SDS011;7237;49.500;11.400;2024-03-22T01:00:53;81.23;;;17.73;;
14306;SDS011;7237;49.500;11.400;2024-03-22T01:03:20;144.97;;;19.03;;
14306;SDS011;7237;49.500;11.400;2024-03-22T01:05:46;136.67;;;17.67;;
14306;SDS011;7237;49.500;11.400;2024-03-22T01:08:13;87.90;;;17.80;;
14306;SDS011;7237;49.500;11.400;2024-03-22T01:10:40;93.73;;;17.23;;
14306;SDS011;7237;49.500;11.400;2024-03-22T01:13:07;94.57;;;16.50;;
14306;SDS011;7237;49.500;11.400;2024-03-22T01:15:34;108.50;;;16.80;;
14306;SDS011;7237;49.500;11.400;2024-03-22T01:18:02;94.60;;;15.97;;
14306;SDS011;7237;49.500;11.400;2024-03-22T01:20:28;206.20;;;18.73;;
14306;SDS011;7237;49.500;11.400;2024-03-22T01:22:55;131.80;;;17.73;;
14306;SDS011;7237;49.500;11.400;2024-03-22T01:25:21;107.00;;;17.03;;
14306;SDS011;7237;49.500;11.400;2024-03-22T01:27:48;92.77;;;15.73;;
14306;SDS011;7237;49.500;11.400;2024-03-22T01:30:14;87.60;;;15.53;;
14306;SDS011;7237;49.500;11.400;2024-03-22T01:32:42;130.50;;;17.23;;
14306;SDS011;7237;49.500;11.400;2024-03-22T01:35:09;84.20;;;16.40;;
14306;SDS011;7237;49.500;11.400;2024-03-22T01:37:36;172.27;;;18.60;;
14306;SDS011;7237;49.500;11.400;2024-03-22T01:40:02;267.60;;;24.43;;
14306;SDS011;7237;49.500;11.400;2024-03-22T01:42:30;141.33;;;17.73;;
14306;SDS011;7237;49.500;11.400;2024-03-22T01:44:56;148.07;;;16.50;;
14306;SDS011;7237;49.500;11.400;2024-03-22T01:47:23;171.23;;;19.03;;
14306;SDS011;7237;49.500;11.400;2024-03-22T01:49:52;84.53;;;14.40;;
14306;SDS011;7237;49.500;11.400;2024-03-22T01:52:21;104.20;;;14.80;;
14306;SDS011;7237;49.500;11.400;2024-03-22T01:54:47;63.90;;;14.67;;
14306;SDS011;7237;49.500;11.400;2024-03-22T01:57:14;139.70;;;18.10;;
14306;SDS011;7237;49.500;11.400;2024-03-22T01:59:40;31.27;;;13.27;;
14306;SDS011;7237;49.500;11.400;2024-03-22T02:02:08;182.23;;;18.43;;
14306;SDS011;7237;49.500;11.400;2024-03-22T02:04:36;87.70;;;15.53;;
14306;SDS011;7237;49.500;11.400;2024-03-22T02:07:04;104.83;;;15.70;;
14306;SDS011;7237;49.500;11.400;2024-03-22T02:09:30;58.43;;;14.90;;
14306;SDS011;7237;49.500;11.400;2024-03-22T02:11:57;45.03;;;14.50;;
14306;SDS011;7237;49.500;11.400;2024-03-22T02:14:24;137.90;;;17.73;;
14306;SDS011;7237;49.500;11.400;2024-03-22T02:16:51;147.07;;;16.93;;
14306;SDS011;7237;49.500;11.400;2024-03-22T02:19:17;90.93;;;16.60;;
14306;SDS011;7237;49.500;11.400;2024-03-22T02:21:44;180.07;;;17.20;;
14306;SDS011;7237;49.500;11.400;2024-03-22T02:24:12;68.23;;;14.97;;
14306;SDS011;7237;49.500;11.400;2024-03-22T02:26:39;104.10;;;16.87;;
14306;SDS011;7237;49.500;11.400;2024-03-22T02:29:05;144.00;;;18.87;;
14306;SDS011;7237;49.500;11.400;2024-03-22T02:31:32;107.17;;;17.67;;
14306;SDS011;7237;49.500;11.400;2024-03-22T02:33:58;260.40;;;18.33;;
14306;SDS011;7237;49.500;11.400;2024-03-22T02:36:26;260.70;;;18.80;;
14306;SDS011;7237;49.500;11.400;2024-03-22T02:38:52;251.83;;;18.00;;
14306;SDS011;7237;49.500;11.400;2024-03-22T02:41:20;208.83;;;17.17;;
14306;SDS011;7237;49.500;11.400;2024-03-22T02:43:47;252.33;;;24.90;;
14306;SDS011;7237;49.500;11.400;2024-03-22T02:46:14;76.33;;;14.97;;
14306;SDS011;7237;49.500;11.400;2024-03-22T02:48:40;93.73;;;13.20;;
14306;SDS011;7237;49.500;11.400;2024-03-22T02:51:07;150.27;;;15.40;;
14306;SDS011;7237;49.500;11.400;2024-03-22T02:53:33;176.60;;;16.97;;
14306;SDS011;7237;49.500;11.400;2024-03-22T02:56:00;128.10;;;13.53;;
14306;SDS011;7237;49.500;11.400;2024-03-22T02:58:27;72.60;;;11.63;;
14306;SDS011;7237;49.500;11.400;2024-03-22T03:00:54;100.20;;;13.23;;
14306;SDS011;7237;49.500;11.400;2024-03-22T03:03:20;54.23;;;12.13;;
14306;SDS011;7237;49.500;11.400;2024-03-22T03:05:48;61.40;;;12.07;;
14306;SDS011;7237;49.500;11.400;2024-03-22T03:08:14;44.27;;;10.00;;
14306;SDS011;7237;49.500;11.400;2024-03-22T03:10:41;22.87;;;10.43;;
14306;SDS011;7237;49.500;11.400;2024-03-22T03:13:07;32.23;;;11.23;;
14306;SDS011;7237;49.500;11.400;2024-03-22T03:15:35;36.97;;;10.93;;
14306;SDS011;7237;49.500;11.400;2024-03-22T03:18:01;46.07;;;12.13;;
14306;SDS011;7237;49.500;11.400;2024-03-22T03:20:28;27.43;;;10.50;;
14306;SDS011;7237;49.500;11.400;2024-03-22T03:22:54;56.03;;;11.33;;
14306;SDS011;7237;49.500;11.400;2024-03-22T03:25:24;51.03;;;12.20;;
14306;SDS011;7237;49.500;11.400;2024-03-22T03:27:51;32.20;;;10.50;;
14306;SDS011;7237;49.500;11.400;2024-03-22T03:30:18;28.43;;;10.53;;
14306;SDS011;7237;49.500;11.400;2024-03-22T03:32:45;17.40;;;9.87;;
14306;SDS011;7237;49.500;11.400;2024-03-22T03:35:12;15.53;;;9.90;;
14306;SDS011;7237;49.500;11.400;2024-03-22T03:37:38;30.20;;;11.17;;
14306;SDS011;7237;49.500;11.400;2024-03-22T03:40:06;42.70;;;11.50;;
14306;SDS011;7237;49.500;11.400;2024-03-22T03:42:32;35.70;;;11.27;;
14306;SDS011;7237;49.500;11.400;2024-03-22T03:44:59;35.97;;;11.33;;
14306;SDS011;7237;49.500;11.400;2024-03-22T03:47:25;54.77;;;10.87;;
14306;SDS011;7237;49.500;11.400;2024-03-22T03:49:54;84.93;;;12.27;;
14306;SDS011;7237;49.500;11.400;2024-03-22T03:52:20;46.60;;;10.30;;
14306;SDS011;7237;49.500;11.400;2024-03-22T03:54:47;62.10;;;11.30;;
14306;SDS011;7237;49.500;11.400;2024-03-22T03:57:13;70.80;;;12.17;;
14306;SDS011;7237;49.500;11.400;2024-03-22T03:59:40;55.57;;;12.07;;
14306;SDS011;7237;49.500;11.400;2024-03-22T04:02:06;70.10;;;12.40;;
14306;SDS011;7237;49.500;11.400;2024-03-22T04:04:33;78.00;;;11.43;;
14306;SDS011;7237;49.500;11.400;2024-03-22T04:07:00;52.23;;;12.03;;
14306;SDS011;7237;49.500;11.400;2024-03-22T04:09:27;107.87;;;12.93;;
14306;SDS011;7237;49.500;11.400;2024-03-22T04:11:54;91.67;;;12.90;;
14306;SDS011;7237;49.500;11.400;2024-03-22T04:14:23;76.43;;;12.47;;
14306;SDS011;7237;49.500;11.400;2024-03-22T04:16:49;129.60;;;14.77;;
14306;SDS011;7237;49.500;11.400;2024-03-22T04:19:19;96.63;;;12.07;;
14306;SDS011;7237;49.500;11.400;2024-03-22T04:21:45;73.47;;;11.93;;
14306;SDS011;7237;49.500;11.400;2024-03-22T04:24:13;87.77;;;11.73;;
14306;SDS011;7237;49.500;11.400;2024-03-22T04:26:40;129.87;;;14.93;;
14306;SDS011;7237;49.500;11.400;2024-03-22T04:29:07;84.37;;;13.63;;
14306;SDS011;7237;49.500;11.400;2024-03-22T04:31:33;117.20;;;13.17;;
14306;SDS011;7237;49.500;11.400;2024-03-22T04:34:00;95.87;;;14.03;;
14306;SDS011;7237;49.500;11.400;2024-03-22T04:36:26;61.07;;;11.53;;
14306;SDS011;7237;49.500;11.400;2024-03-22T04:38:53;88.13;;;13.40;;
14306;SDS011;7237;49.500;11.400;2024-03-22T04:41:21;51.33;;;10.97;;
14306;SDS011;7237;49.500;11.400;2024-03-22T04:43:48;64.83;;;12.13;;
14306;SDS011;7237;49.500;11.400;2024-03-22T04:46:15;65.87;;;11.37;;
14306;SDS011;7237;49.500;11.400;2024-03-22T04:48:41;81.70;;;12.67;;
14306;SDS011;7237;49.500;11.400;2024-03-22T04:51:08;53.10;;;10.53;;
14306;SDS011;7237;49.500;11.400;2024-03-22T04:53:34;53.30;;;9.93;;
14306;SDS011;7237;49.500;11.400;2024-03-22T04:56:02;25.37;;;9.93;;
14306;SDS011;7237;49.500;11.400;2024-03-22T04:58:29;42.73;;;9.87;;
14306;SDS011;7237;49.500;11.400;2024-03-22T05:00:56;40.20;;;9.63;;
14306;SDS011;7237;49.500;11.400;2024-03-22T05:03:23;31.57;;;8.90;;
14306;SDS011;7237;49.500;11.400;2024-03-22T05:05:50;32.03;;;8.87;;
14306;SDS011;7237;49.500;11.400;2024-03-22T05:08:16;42.30;;;10.53;;
14306;SDS011;7237;49.500;11.400;2024-03-22T05:10:43;32.23;;;9.33;;
14306;SDS011;7237;49.500;11.400;2024-03-22T05:13:09;39.03;;;9.83;;
14306;SDS011;7237;49.500;11.400;2024-03-22T05:15:38;63.13;;;10.90;;
14306;SDS011;7237;49.500;11.400;2024-03-22T05:18:04;33.97;;;9.40;;
14306;SDS011;7237;49.500;11.400;2024-03-22T05:20:31;31.03;;;9.83;;
14306;SDS011;7237;49.500;11.400;2024-03-22T05:22:57;57.23;;;10.93;;
14306;SDS011;7237;49.500;11.400;2024-03-22T05:25:24;47.10;;;10.17;;
14306;SDS011;7237;49.500;11.400;2024-03-22T05:27:50;42.90;;;10.40;;
14306;SDS011;7237;49.500;11.400;2024-03-22T05:30:18;23.30;;;9.27;;
14306;SDS011;7237;49.500;11.400;2024-03-22T05:32:45;98.27;;;12.70;;
14306;SDS011;7237;49.500;11.400;2024-03-22T05:35:14;81.90;;;10.30;;
14306;SDS011;7237;49.500;11.400;2024-03-22T05:37:40;79.77;;;9.20;;
14306;SDS011;7237;49.500;11.400;2024-03-22T05:40:07;54.83;;;10.03;;
14306;SDS011;7237;49.500;11.400;2024-03-22T05:42:34;44.17;;;9.40;;
14306;SDS011;7237;49.500;11.400;2024-03-22T05:45:01;46.67;;;8.30;;
14306;SDS011;7237;49.500;11.400;2024-03-22T05:47:27;72.13;;;10.27;;
14306;SDS011;7237;49.500;11.400;2024-03-22T05:49:57;16.13;;;7.97;;
14306;SDS011;7237;49.500;11.400;2024-03-22T05:52:23;27.10;;;7.80;;
14306;SDS011;7237;49.500;11.400;2024-03-22T05:54:50;84.67;;;12.67;;
14306;SDS011;7237;49.500;11.400;2024-03-22T05:57:16;34.00;;;9.60;;
14306;SDS011;7237;49.500;11.400;2024-03-22T05:59:43;31.97;;;9.50;;
14306;SDS011;7237;49.500;11.400;2024-03-22T06:02:09;13.30;;;8.83;;
14306;SDS011;7237;49.500;11.400;2024-03-22T06:04:37;68.13;;;10.90;;
14306;SDS011;7237;49.500;11.400;2024-03-22T06:07:04;97.43;;;14.17;;
14306;SDS011;7237;49.500;11.400;2024-03-22T06:09:31;75.33;;;12.00;;
14306;SDS011;7237;49.500;11.400;2024-03-22T06:12:02;36.60;;;10.30;;
14306;SDS011;7237;49.500;11.400;2024-03-22T06:14:29;27.53;;;10.50;;
14306;SDS011;7237;49.500;11.400;2024-03-22T06:16:55;22.20;;;10.20;;
14306;SDS011;7237;49.500;11.400;2024-03-22T06:19:22;25.73;;;9.60;;
14306;SDS011;7237;49.500;11.400;2024-03-22T06:21:48;25.50;;;9.80;;
14306;SDS011;7237;49.500;11.400;2024-03-22T06:24:17;15.83;;;9.87;;
14306;SDS011;7237;49.500;11.400;2024-03-22T06:26:43;94.70;;;13.73;;
14306;SDS011;7237;49.500;11.400;2024-03-22T06:29:10;43.80;;;12.20;;
14306;SDS011;7237;49.500;11.400;2024-03-22T06:31:37;38.23;;;11.43;;
14306;SDS011;7237;49.500;11.400;2024-03-22T06:34:04;20.13;;;10.17;;
14306;SDS011;7237;49.500;11.400;2024-03-22T06:36:31;21.27;;;11.10;;
14306;SDS011;7237;49.500;11.400;2024-03-22T06:38:58;15.67;;;12.17;;
14306;SDS011;7237;49.500;11.400;2024-03-22T06:41:25;16.00;;;12.27;;
14306;SDS011;7237;49.500;11.400;2024-03-22T06:43:52;20.20;;;14.17;;
14306;SDS011;7237;49.500;11.400;2024-03-22T06:46:18;19.40;;;13.87;;
14306;SDS011;7237;49.500;11.400;2024-03-22T06:48:46;18.97;;;14.13;;
14306;SDS011;7237;49.500;11.400;2024-03-22T06:51:12;21.33;;;14.97;;
14306;SDS011;7237;49.500;11.400;2024-03-22T06:53:39;18.97;;;14.50;;
14306;SDS011;7237;49.500;11.400;2024-03-22T06:56:05;18.80;;;14.77;;
14306;SDS011;7237;49.500;11.400;2024-03-22T06:58:35;16.60;;;13.93;;
14306;SDS011;7237;49.500;11.400;2024-03-22T07:01:01;16.07;;;13.63;;
14306;SDS011;7237;49.500;11.400;2024-03-22T07:03:29;16.50;;;13.00;;
14306;SDS011;7237;49.500;11.400;2024-03-22T07:05:55;14.57;;;12.13;;
14306;SDS011;7237;49.500;11.400;2024-03-22T07:08:22;14.00;;;11.57;;
14306;SDS011;7237;49.500;11.400;2024-03-22T07:10:48;13.10;;;11.73;;
14306;SDS011;7237;49.500;11.400;2024-03-22T07:13:15;15.00;;;12.00;;
14306;SDS011;7237;49.500;11.400;2024-03-22T07:15:45;15.27;;;12.30;;
14306;SDS011;7237;49.500;11.400;2024-03-22T07:18:12;18.70;;;13.03;;
14306;SDS011;7237;49.500;11.400;2024-03-22T07:20:38;16.40;;;12.60;;
14306;SDS011;7237;49.500;11.400;2024-03-22T07:23:05;13.33;;;11.93;;
14306;SDS011;7237;49.500;11.400;2024-03-22T07:25:31;15.80;;;13.03;;
14306;SDS011;7237;49.500;11.400;2024-03-22T07:27:58;14.13;;;12.33;;
14306;SDS011;7237;49.500;11.400;2024-03-22T07:30:24;15.47;;;12.00;;
14306;SDS011;7237;49.500;11.400;2024-03-22T07:32:54;14.23;;;11.97;;
14306;SDS011;7237;49.500;11.400;2024-03-22T07:35:20;14.80;;;12.00;;
14306;SDS011;7237;49.500;11.400;2024-03-22T07:37:50;15.80;;;11.90;;
14306;SDS011;7237;49.500;11.400;2024-03-22T07:40:16;14.30;;;12.33;;
14306;SDS011;7237;49.500;11.400;2024-03-22T07:42:45;12.93;;;11.57;;
14306;SDS011;7237;49.500;11.400;2024-03-22T07:45:11;13.07;;;11.67;;
14306;SDS011;7237;49.500;11.400;2024-03-22T07:47:38;13.93;;;12.03;;
14306;SDS011;7237;49.500;11.400;2024-03-22T07:50:08;16.43;;;12.10;;
14306;SDS011;7237;49.500;11.400;2024-03-22T07:52:36;14.37;;;11.77;;
14306;SDS011;7237;49.500;11.400;2024-03-22T07:55:02;14.70;;;12.40;;
14306;SDS011;7237;49.500;11.400;2024-03-22T07:57:29;14.77;;;12.47;;
14306;SDS011;7237;49.500;11.400;2024-03-22T07:59:55;14.37;;;12.40;;
14306;SDS011;7237;49.500;11.400;2024-03-22T08:02:23;13.80;;;11.47;;
14306;SDS011;7237;49.500;11.400;2024-03-22T08:04:49;14.83;;;11.90;;
14306;SDS011;7237;49.500;11.400;2024-03-22T08:07:17;14.30;;;11.50;;
14306;SDS011;7237;49.500;11.400;2024-03-22T08:09:43;14.27;;;11.07;;
14306;SDS011;7237;49.500;11.400;2024-03-22T08:12:10;12.90;;;10.97;;
14306;SDS011;7237;49.500;11.400;2024-03-22T08:14:36;12.43;;;11.07;;
14306;SDS011;7237;49.500;11.400;2024-03-22T08:17:03;14.53;;;12.00;;
14306;SDS011;7237;49.500;11.400;2024-03-22T08:19:31;11.43;;;10.13;;
14306;SDS011;7237;49.500;11.400;2024-03-22T08:21:58;16.13;;;10.53;;
14306;SDS011;7237;49.500;11.400;2024-03-22T08:24:25;11.00;;;9.80;;
14306;SDS011;7237;49.500;11.400;2024-03-22T08:26:52;13.03;;;10.57;;
14306;SDS011;7237;49.500;11.400;2024-03-22T08:29:18;11.60;;;9.47;;
14306;SDS011;7237;49.500;11.400;2024-03-22T08:31:45;13.17;;;10.00;;
14306;SDS011;7237;49.500;11.400;2024-03-22T08:34:11;12.13;;;8.93;;
14306;SDS011;7237;49.500;11.400;2024-03-22T08:36:39;12.50;;;10.53;;
14306;SDS011;7237;49.500;11.400;2024-03-22T08:39:05;15.73;;;10.13;;
14306;SDS011;7237;49.500;11.400;2024-03-22T08:41:36;12.70;;;10.47;;
14306;SDS011;7237;49.500;11.400;2024-03-22T08:44:02;11.60;;;9.83;;
14306;SDS011;7237;49.500;11.400;2024-03-22T08:46:30;10.50;;;9.30;;
14306;SDS011;7237;49.500;11.400;2024-03-22T08:48:57;11.70;;;9.33;;
14306;SDS011;7237;49.500;11.400;2024-03-22T08:51:24;10.07;;;8.70;;
14306;SDS011;7237;49.500;11.400;2024-03-22T08:53:51;9.13;;;8.23;;
14306;SDS011;7237;49.500;11.400;2024-03-22T08:56:18;9.00;;;8.10;;
14306;SDS011;7237;49.500;11.400;2024-03-22T08:58:45;8.90;;;7.77;;
14306;SDS011;7237;49.500;11.400;2024-03-22T09:01:12;9.90;;;8.57;;
14306;SDS011;7237;49.500;11.400;2024-03-22T09:03:38;9.20;;;8.27;;
14306;SDS011;7237;49.500;11.400;2024-03-22T09:06:06;9.67;;;8.43;;
14306;SDS011;7237;49.500;11.400;2024-03-22T09:08:32;10.10;;;9.10;;
14306;SDS011;7237;49.500;11.400;2024-03-22T09:10:59;10.07;;;8.97;;
14306;SDS011;7237;49.500;11.400;2024-03-22T09:13:25;9.83;;;8.80;;
14306;SDS011;7237;49.500;11.400;2024-03-22T09:15:57;11.07;;;9.10;;
14306;SDS011;7237;49.500;11.400;2024-03-22T09:18:23;10.33;;;9.00;;
14306;SDS011;7237;49.500;11.400;2024-03-22T09:20:51;10.47;;;8.37;;
14306;SDS011;7237;49.500;11.400;2024-03-22T09:23:18;9.70;;;8.70;;
14306;SDS011;7237;49.500;11.400;2024-03-22T09:25:45;10.23;;;8.60;;
14306;SDS011;7237;49.500;11.400;2024-03-22T09:28:11;9.37;;;8.30;;
14306;SDS011;7237;49.500;11.400;2024-03-22T09:30:38;9.33;;;8.33;;
14306;SDS011;7237;49.500;11.400;2024-03-22T09:33:06;10.27;;;8.30;;
14306;SDS011;7237;49.500;11.400;2024-03-22T09:35:33;10.20;;;9.03;;
14306;SDS011;7237;49.500;11.400;2024-03-22T09:37:59;13.00;;;9.43;;
14306;SDS011;7237;49.500;11.400;2024-03-22T09:40:27;10.37;;;8.57;;
14306;SDS011;7237;49.500;11.400;2024-03-22T09:42:53;10.43;;;8.83;;
14306;SDS011;7237;49.500;11.400;2024-03-22T09:45:20;12.90;;;9.40;;
14306;SDS011;7237;49.500;11.400;2024-03-22T09:47:47;9.73;;;8.73;;
14306;SDS011;7237;49.500;11.400;2024-03-22T09:50:16;11.97;;;9.63;;
14306;SDS011;7237;49.500;11.400;2024-03-22T09:52:42;10.00;;;8.53;;
14306;SDS011;7237;49.500;11.400;2024-03-22T09:55:10;9.63;;;8.43;;
14306;SDS011;7237;49.500;11.400;2024-03-22T09:57:38;10.57;;;9.47;;
14306;SDS011;7237;49.500;11.400;2024-03-22T10:00:06;11.20;;;9.33;;
14306;SDS011;7237;49.500;11.400;2024-03-22T10:02:32;11.77;;;8.93;;
14306;SDS011;7237;49.500;11.400;2024-03-22T10:05:00;9.83;;;8.43;;
14306;SDS011;7237;49.500;11.400;2024-03-22T10:07:28;10.93;;;9.63;;
14306;SDS011;7237;49.500;11.400;2024-03-22T10:09:57;12.47;;;9.73;;
14306;SDS011;7237;49.500;11.400;2024-03-22T10:12:23;12.00;;;9.13;;
14306;SDS011;7237;49.500;11.400;2024-03-22T10:14:52;12.03;;;9.90;;
14306;SDS011;7237;49.500;11.400;2024-03-22T10:17:18;10.73;;;8.87;;
14306;SDS011;7237;49.500;11.400;2024-03-22T10:19:45;11.00;;;9.20;;
14306;SDS011;7237;49.500;11.400;2024-03-22T10:22:11;8.90;;;8.00;;
14306;SDS011;7237;49.500;11.400;2024-03-22T10:24:39;7.80;;;7.00;;
14306;SDS011;7237;49.500;11.400;2024-03-22T10:27:06;8.60;;;6.50;;
14306;SDS011;7237;49.500;11.400;2024-03-22T10:29:33;8.03;;;7.23;;
14306;SDS011;7237;49.500;11.400;2024-03-22T10:31:59;7.43;;;5.60;;
14306;SDS011;7237;49.500;11.400;2024-03-22T10:34:26;7.72;;;6.10;;
14306;SDS011;7237;49.500;11.400;2024-03-22T10:36:53;6.88;;;5.90;;
14306;SDS011;7237;49.500;11.400;2024-03-22T10:39:22;10.25;;;6.43;;
14306;SDS011;7237;49.500;11.400;2024-03-22T10:41:50;6.82;;;5.93;;
14306;SDS011;7237;49.500;11.400;2024-03-22T10:44:17;8.10;;;7.15;;
14306;SDS011;7237;49.500;11.400;2024-03-22T10:46:43;7.75;;;6.90;;
14306;SDS011;7237;49.500;11.400;2024-03-22T10:49:12;11.27;;;7.15;;
14306;SDS011;7237;49.500;11.400;2024-03-22T10:51:40;6.80;;;6.10;;
14306;SDS011;7237;49.500;11.400;2024-03-22T10:54:07;8.68;;;6.75;;
14306;SDS011;7237;49.500;11.400;2024-03-22T10:56:34;7.03;;;6.32;;
14306;SDS011;7237;49.500;11.400;2024-03-22T10:59:03;8.10;;;7.30;;
14306;SDS011;7237;49.500;11.400;2024-03-22T11:01:31;7.75;;;6.55;;
14306;SDS011;7237;49.500;11.400;2024-03-22T11:04:05;8.95;;;6.85;;
14306;SDS011;7237;49.500;11.400;2024-03-22T11:06:31;7.38;;;6.25;;
14306;SDS011;7237;49.500;11.400;2024-03-22T11:08:59;7.45;;;6.65;;
14306;SDS011;7237;49.500;11.400;2024-03-22T11:11:27;7.97;;;7.03;;
14306;SDS011;7237;49.500;11.400;2024-03-22T11:13:56;7.60;;;6.90;;
14306;SDS011;7237;49.500;11.400;2024-03-22T11:16:24;7.78;;;6.97;;
14306;SDS011;7237;49.500;11.400;2024-03-22T11:18:51;7.40;;;6.70;;
14306;SDS011;7237;49.500;11.400;2024-03-22T11:21:17;6.68;;;6.07;;
14306;SDS011;7237;49.500;11.400;2024-03-22T11:23:45;8.00;;;7.10;;
14306;SDS011;7237;49.500;11.400;2024-03-22T11:26:11;8.93;;;7.10;;
14306;SDS011;7237;49.500;11.400;2024-03-22T11:28:38;9.50;;;6.45;;
14306;SDS011;7237;49.500;11.400;2024-03-22T11:31:04;7.80;;;6.05;;
14306;SDS011;7237;49.500;11.400;2024-03-22T11:33:32;7.82;;;6.32;;
14306;SDS011;7237;49.500;11.400;2024-03-22T11:36:00;5.78;;;5.28;;
14306;SDS011;7237;49.500;11.400;2024-03-22T11:38:27;5.80;;;4.63;;
14306;SDS011;7237;49.500;11.400;2024-03-22T11:40:55;5.40;;;4.88;;
14306;SDS011;7237;49.500;11.400;2024-03-22T11:43:23;5.13;;;4.63;;
14306;SDS011;7237;49.500;11.400;2024-03-22T11:45:50;5.07;;;4.57;;
14306;SDS011;7237;49.500;11.400;2024-03-22T11:48:16;6.32;;;4.85;;
14306;SDS011;7237;49.500;11.400;2024-03-22T11:50:44;7.55;;;6.18;;
14306;SDS011;7237;49.500;11.400;2024-03-22T11:53:11;8.13;;;5.95;;
14306;SDS011;7237;49.500;11.400;2024-03-22T11:55:38;10.52;;;6.50;;
14306;SDS011;7237;49.500;11.400;2024-03-22T11:58:04;7.25;;;6.55;;
14306;SDS011;7237;49.500;11.400;2024-03-22T12:00:32;7.20;;;6.50;;
14306;SDS011;7237;49.500;11.400;2024-03-22T12:02:58;8.10;;;7.30;;
14306;SDS011;7237;49.500;11.400;2024-03-22T12:05:25;7.13;;;6.40;;
14306;SDS011;7237;49.500;11.400;2024-03-22T12:07:52;8.63;;;6.65;;
14306;SDS011;7237;49.500;11.400;2024-03-22T12:10:20;9.48;;;6.80;;
14306;SDS011;7237;49.500;11.400;2024-03-22T12:12:46;7.93;;;6.32;;
14306;SDS011;7237;49.500;11.400;2024-03-22T12:15:13;8.88;;;7.32;;
14306;SDS011;7237;49.500;11.400;2024-03-22T12:17:39;8.07;;;7.28;;
14306;SDS011;7237;49.500;11.400;2024-03-22T12:20:08;8.25;;;6.88;;
14306;SDS011;7237;49.500;11.400;2024-03-22T12:22:34;9.00;;;6.53;;
14306;SDS011;7237;49.500;11.400;2024-03-22T12:25:03;6.15;;;5.53;;
14306;SDS011;7237;49.500;11.400;2024-03-22T12:27:30;6.90;;;5.35;;
14306;SDS011;7237;49.500;11.400;2024-03-22T12:29:57;6.88;;;4.85;;
14306;SDS011;7237;49.500;11.400;2024-03-22T12:32:24;7.70;;;4.70;;
14306;SDS011;7237;49.500;11.400;2024-03-22T12:34:52;4.93;;;4.45;;
14306;SDS011;7237;49.500;11.400;2024-03-22T12:37:18;5.22;;;4.35;;
14306;SDS011;7237;49.500;11.400;2024-03-22T12:39:45;4.40;;;3.60;;
14306;SDS011;7237;49.500;11.400;2024-03-22T12:42:13;3.55;;;2.78;;
14306;SDS011;7237;49.500;11.400;2024-03-22T12:44:40;2.60;;;2.40;;
14306;SDS011;7237;49.500;11.400;2024-03-22T12:47:07;3.60;;;2.65;;
14306;SDS011;7237;49.500;11.400;2024-03-22T12:49:34;3.00;;;2.35;;
14306;SDS011;7237;49.500;11.400;2024-03-22T12:52:01;2.58;;;2.17;;
14306;SDS011;7237;49.500;11.400;2024-03-22T12:54:27;3.50;;;2.95;;
14306;SDS011;7237;49.500;11.400;2024-03-22T12:56:54;3.58;;;3.05;;
14306;SDS011;7237;49.500;11.400;2024-03-22T12:59:22;3.42;;;2.90;;
14306;SDS011;7237;49.500;11.400;2024-03-22T13:01:49;3.72;;;3.40;;
14306;SDS011;7237;49.500;11.400;2024-03-22T13:04:15;4.18;;;3.33;;
14306;SDS011;7237;49.500;11.400;2024-03-22T13:06:42;3.85;;;3.45;;
14306;SDS011;7237;49.500;11.400;2024-03-22T13:09:08;4.10;;;3.63;;
14306;SDS011;7237;49.500;11.400;2024-03-22T13:11:37;5.10;;;3.40;;
14306;SDS011;7237;49.500;11.400;2024-03-22T13:14:06;3.40;;;2.95;;
14306;SDS011;7237;49.500;11.400;2024-03-22T13:16:34;3.70;;;3.40;;
14306;SDS011;7237;49.500;11.400;2024-03-22T13:19:00;4.10;;;3.70;;
14306;SDS011;7237;49.500;11.400;2024-03-22T13:21:27;4.05;;;3.65;;
14306;SDS011;7237;49.500;11.400;2024-03-22T13:23:53;6.22;;;4.15;;
14306;SDS011;7237;49.500;11.400;2024-03-22T13:26:21;4.32;;;3.92;;
14306;SDS011;7237;49.500;11.400;2024-03-22T13:28:47;5.90;;;3.88;;
14306;SDS011;7237;49.500;11.400;2024-03-22T13:31:14;4.15;;;3.75;;
14306;SDS011;7237;49.500;11.400;2024-03-22T13:33:42;4.30;;;3.90;;
14306;SDS011;7237;49.500;11.400;2024-03-22T13:36:09;5.85;;;3.83;;
14306;SDS011;7237;49.500;11.400;2024-03-22T13:38:35;3.83;;;3.38;;
14306;SDS011;7237;49.500;11.400;2024-03-22T13:41:02;4.50;;;4.10;;
14306;SDS011;7237;49.500;11.400;2024-03-22T13:43:29;6.38;;;4.80;;
14306;SDS011;7237;49.500;11.400;2024-03-22T13:45:56;6.20;;;4.70;;
14306;SDS011;7237;49.500;11.400;2024-03-22T13:48:23;5.10;;;4.60;;
14306;SDS011;7237;49.500;11.400;2024-03-22T13:50:52;4.90;;;4.28;;
14306;SDS011;7237;49.500;11.400;2024-03-22T13:53:18;5.50;;;4.70;;
14306;SDS011;7237;49.500;11.400;2024-03-22T13:55:46;5.05;;;4.53;;
14306;SDS011;7237;49.500;11.400;2024-03-22T13:58:13;6.30;;;4.50;;
14306;SDS011;7237;49.500;11.400;2024-03-22T14:00:40;7.63;;;5.03;;
14306;SDS011;7237;49.500;11.400;2024-03-22T14:03:06;4.30;;;3.90;;
14306;SDS011;7237;49.500;11.400;2024-03-22T14:05:33;4.57;;;4.15;;
14306;SDS011;7237;49.500;11.400;2024-03-22T14:08:00;4.70;;;4.18;;
14306;SDS011;7237;49.500;11.400;2024-03-22T14:10:28;4.78;;;4.10;;
14306;SDS011;7237;49.500;11.400;2024-03-22T14:12:56;6.00;;;4.10;;
14306;SDS011;7237;49.500;11.400;2024-03-22T14:15:23;4.60;;;4.20;;
14306;SDS011;7237;49.500;11.400;2024-03-22T14:17:50;5.30;;;4.80;;
14306;SDS011;7237;49.500;11.400;2024-03-22T14:20:17;4.95;;;4.50;;
14306;SDS011;7237;49.500;11.400;2024-03-22T14:22:43;4.85;;;4.40;;
14306;SDS011;7237;49.500;11.400;2024-03-22T14:25:13;4.40;;;3.95;;
14306;SDS011;7237;49.500;11.400;2024-03-22T14:27:39;4.25;;;3.85;;
14306;SDS011;7237;49.500;11.400;2024-03-22T14:30:10;5.72;;;3.97;;